createdAt,value
2023-05-11T00:00:55.295Z,98898.70
2023-05-11T00:02:17.276Z,98901.52
2023-05-11T00:03:39.996Z,98902.66
2023-05-11T00:05:04.153Z,98897.97
2023-05-11T00:06:28.217Z,98906.07
2023-05-11T00:07:50.215Z,98901.98
2023-05-11T00:09:23.319Z,98899.35
2023-05-11T00:10:52.737Z,98905.08
2023-05-11T00:12:14.806Z,98898.71
2023-05-11T00:13:36.957Z,98899.17
2023-05-11T00:14:58.890Z,98895.05
2023-05-11T00:16:22.640Z,98901.63
2023-05-11T00:17:47.523Z,98899.86
2023-05-11T00:19:09.480Z,98898.93
2023-05-11T00:20:30.856Z,98896.59
2023-05-11T00:21:52.879Z,98901.77
2023-05-11T00:23:14.407Z,98895.02
2023-05-11T00:24:36.311Z,98898.76
2023-05-11T00:25:57.937Z,98899.20
2023-05-11T00:27:19.421Z,98898.00
2023-05-11T00:28:41.822Z,98899.84
2023-05-11T00:30:03.877Z,98896.92
2023-05-11T00:31:26.177Z,98899.81
2023-05-11T00:32:52.411Z,98898.33
2023-05-11T00:34:16.498Z,98900.62
2023-05-11T00:35:38.590Z,98901.69
2023-05-11T00:37:00.607Z,98899.83
2023-05-11T00:38:22.022Z,98899.40
2023-05-11T00:39:43.816Z,98894.42
2023-05-11T00:41:05.810Z,98896.40
2023-05-11T00:42:27.619Z,98898.76
2023-05-11T00:43:51.027Z,98898.23
2023-05-11T00:45:14.680Z,98895.55
2023-05-11T00:46:37.050Z,98895.92
2023-05-11T00:47:59.047Z,98894.51
2023-05-11T00:49:23.026Z,98894.73
2023-05-11T00:50:44.725Z,98896.11
2023-05-11T00:52:06.793Z,98892.88
2023-05-11T00:53:28.556Z,98895.73
2023-05-11T00:54:50.618Z,98894.17
2023-05-11T00:56:13.118Z,98881.46
2023-05-11T00:57:36.256Z,98894.16
2023-05-11T00:58:59.349Z,98889.04
2023-05-11T01:00:21.920Z,98894.54
2023-05-11T01:01:44.132Z,98894.13
2023-05-11T01:03:05.893Z,98895.23
2023-05-11T01:04:27.060Z,98890.59
2023-05-11T01:05:49.062Z,98895.80
2023-05-11T01:07:12.937Z,98894.73
2023-05-11T01:08:35.509Z,98889.65
2023-05-11T01:09:57.796Z,98890.69
2023-05-11T01:11:19.467Z,98892.61
2023-05-11T01:12:41.284Z,98893.03
2023-05-11T01:14:03.309Z,98891.73
2023-05-11T01:15:25.452Z,98891.95
2023-05-11T01:16:49.689Z,98891.89
2023-05-11T01:18:12.246Z,98887.34
2023-05-11T01:19:34.318Z,98891.45
2023-05-11T01:20:56.396Z,98888.45
2023-05-11T01:22:17.919Z,98895.43
2023-05-11T01:23:40.095Z,98890.55
2023-05-11T01:25:02.321Z,98891.35
2023-05-11T01:26:24.537Z,98888.91
2023-05-11T01:27:48.015Z,98889.09
2023-05-11T01:29:09.610Z,98885.55
2023-05-11T01:30:31.620Z,98887.98
2023-05-11T01:31:56.204Z,98879.55
2023-05-11T01:33:18.116Z,98881.02
2023-05-11T01:34:40.166Z,98886.19
2023-05-11T01:36:01.914Z,98883.52
2023-05-11T01:37:23.550Z,98885.77
2023-05-11T01:38:45.978Z,98886.60
2023-05-11T01:40:07.460Z,98884.27
2023-05-11T01:41:29.328Z,98885.11
2023-05-11T01:43:02.910Z,98883.16
2023-05-11T01:44:24.412Z,98882.66
2023-05-11T01:45:47.398Z,98883.92
2023-05-11T01:47:11.378Z,98885.28
2023-05-11T01:48:33.085Z,98885.52
2023-05-11T01:49:55.058Z,98879.11
2023-05-11T01:51:16.784Z,98885.31
2023-05-11T01:52:40.140Z,98881.77
2023-05-11T01:54:01.703Z,98878.99
2023-05-11T01:55:22.956Z,98881.08
2023-05-11T01:56:45.068Z,98884.35
2023-05-11T01:58:07.485Z,98883.78
2023-05-11T01:59:28.948Z,98883.02
2023-05-11T02:00:55.661Z,98885.40
2023-05-11T02:02:16.974Z,98882.80
2023-05-11T02:03:40.247Z,98887.02
2023-05-11T02:05:02.192Z,98884.54
2023-05-11T02:06:27.774Z,98882.15
2023-05-11T02:07:51.868Z,98881.77
2023-05-11T02:09:13.544Z,98881.73
2023-05-11T02:10:35.349Z,98881.84
2023-05-11T02:11:58.017Z,98882.60
2023-05-11T02:13:21.934Z,98882.52
2023-05-11T02:14:44.358Z,98881.80
2023-05-11T02:16:06.717Z,98883.65
2023-05-11T02:17:28.320Z,98883.08
2023-05-11T02:18:52.718Z,98881.90
2023-05-11T02:20:15.513Z,98882.38
2023-05-11T02:21:37.211Z,98884.02
2023-05-11T02:22:59.055Z,98886.79
2023-05-11T02:24:20.083Z,98884.25
2023-05-11T02:25:42.173Z,98885.05
2023-05-11T02:27:11.433Z,98883.78
2023-05-11T02:28:33.124Z,98885.88
2023-05-11T02:29:55.306Z,98886.06
2023-05-11T02:31:26.636Z,98885.63
2023-05-11T02:32:49.442Z,98886.53
2023-05-11T02:34:18.993Z,98884.06
2023-05-11T02:35:41.267Z,98886.54
2023-05-11T02:37:05.178Z,98886.94
2023-05-11T02:38:27.815Z,98884.92
2023-05-11T02:39:49.850Z,98888.75
2023-05-11T02:41:11.815Z,98887.96
2023-05-11T02:42:35.300Z,98887.91
2023-05-11T02:43:59.294Z,98885.17
2023-05-11T02:45:23.028Z,98888.12
2023-05-11T02:46:56.925Z,98885.15
2023-05-11T02:48:23.524Z,98887.57
2023-05-11T02:49:50.483Z,98886.45
2023-05-11T02:51:19.248Z,98890.56
2023-05-11T02:52:44.442Z,98887.67
2023-05-11T02:54:07.065Z,98889.73
2023-05-11T02:55:31.342Z,98880.30
2023-05-11T02:56:57.636Z,98886.14
2023-05-11T02:58:19.390Z,98890.90
2023-05-11T02:59:48.517Z,98892.51
2023-05-11T03:01:10.976Z,98893.84
2023-05-11T03:02:34.519Z,98887.07
2023-05-11T03:04:01.697Z,98889.77
2023-05-11T03:05:24.337Z,98886.95
2023-05-11T03:06:48.217Z,98890.99
2023-05-11T03:08:18.655Z,98893.48
2023-05-11T03:09:52.084Z,98891.42
2023-05-11T03:11:16.117Z,98886.91
2023-05-11T03:12:42.385Z,98886.23
2023-05-11T03:14:04.465Z,98891.66
2023-05-11T03:15:27.997Z,98894.14
2023-05-11T03:16:50.365Z,98893.80
2023-05-11T03:18:12.320Z,98888.83
2023-05-11T03:19:34.028Z,98888.69
2023-05-11T03:20:56.205Z,98894.58
2023-05-11T03:22:19.829Z,98891.77
2023-05-11T03:23:42.246Z,98889.70
2023-05-11T03:25:04.051Z,98890.75
2023-05-11T03:26:33.359Z,98896.61
2023-05-11T03:27:55.544Z,98894.36
2023-05-11T03:29:17.451Z,98894.42
2023-05-11T03:30:39.422Z,98882.67
2023-05-11T03:32:04.256Z,98894.16
2023-05-11T03:33:33.888Z,98898.91
2023-05-11T03:34:56.251Z,98899.18
2023-05-11T03:36:17.888Z,98898.21
2023-05-11T03:37:47.312Z,98897.20
2023-05-11T03:39:09.426Z,98898.34
2023-05-11T03:40:33.443Z,98895.70
2023-05-11T03:41:58.320Z,98897.99
2023-05-11T03:43:20.143Z,98902.23
2023-05-11T03:44:43.141Z,98900.20
2023-05-11T03:46:16.857Z,98900.20
2023-05-11T03:47:40.897Z,98900.59
2023-05-11T03:49:07.210Z,98901.12
2023-05-11T03:50:28.853Z,98891.50
2023-05-11T03:51:53.287Z,98899.27
2023-05-11T03:53:15.563Z,98900.23
2023-05-11T03:54:49.333Z,98903.23
2023-05-11T03:56:11.339Z,98905.17
2023-05-11T03:57:47.768Z,98903.79
2023-05-11T03:59:24.151Z,98906.39
2023-05-11T04:00:46.402Z,98905.73
2023-05-11T04:02:26.937Z,98904.36
2023-05-11T04:03:49.730Z,98907.58
2023-05-11T04:05:18.445Z,98910.24
2023-05-11T04:06:40.611Z,98911.66
2023-05-11T04:08:18.172Z,98909.67
2023-05-11T04:09:40.456Z,98911.69
2023-05-11T04:11:14.106Z,98913.63
2023-05-11T04:12:35.656Z,98912.50
2023-05-11T04:13:57.323Z,98913.27
2023-05-11T04:15:19.101Z,98917.36
2023-05-11T04:16:43.363Z,98915.02
2023-05-11T04:18:04.997Z,98903.21
2023-05-11T04:19:31.019Z,98917.15
2023-05-11T04:20:55.768Z,98914.67
2023-05-11T04:22:19.412Z,98892.60
2023-05-11T04:23:41.402Z,98915.88
2023-05-11T04:25:07.748Z,98916.52
2023-05-11T04:26:29.303Z,98915.52
2023-05-11T04:27:51.635Z,98917.34
2023-05-11T04:29:23.028Z,98920.20
2023-05-11T04:30:56.822Z,98914.91
2023-05-11T04:32:20.647Z,98917.02
2023-05-11T04:33:42.492Z,98920.83
2023-05-11T04:35:15.719Z,98921.02
2023-05-11T04:36:37.764Z,98919.62
2023-05-11T04:37:59.626Z,98918.20
2023-05-11T04:39:23.875Z,98919.25
2023-05-11T04:40:46.972Z,98924.25
2023-05-11T04:42:08.824Z,98921.70
2023-05-11T04:43:32.795Z,98922.55
2023-05-11T04:44:57.304Z,98924.36
2023-05-11T04:46:19.069Z,98928.51
2023-05-11T04:47:40.968Z,98925.41
2023-05-11T04:49:03.220Z,98921.09
2023-05-11T04:50:27.692Z,98919.13
2023-05-11T04:51:51.816Z,98920.27
2023-05-11T04:53:25.185Z,98916.61
2023-05-11T04:54:47.372Z,98925.37
2023-05-11T04:56:09.238Z,98925.44
2023-05-11T04:57:32.657Z,98927.02
2023-05-11T04:59:03.449Z,98923.63
2023-05-11T05:00:41.480Z,98926.52
2023-05-11T05:02:05.665Z,98925.75
2023-05-11T05:03:27.258Z,98923.51
2023-05-11T05:04:53.080Z,98925.46
2023-05-11T05:06:15.083Z,98927.02
2023-05-11T05:07:36.824Z,98928.02
2023-05-11T05:08:58.696Z,98929.59
2023-05-11T05:10:20.396Z,98932.45
2023-05-11T05:11:44.722Z,98931.25
2023-05-11T05:13:09.007Z,98934.44
2023-05-11T05:14:37.920Z,98934.58
2023-05-11T05:16:09.222Z,98931.48
2023-05-11T05:17:38.784Z,98933.86
2023-05-11T05:19:12.652Z,98939.02
2023-05-11T05:20:35.209Z,98935.18
2023-05-11T05:21:59.673Z,98938.52
2023-05-11T05:23:23.810Z,98940.21
2023-05-11T05:24:47.972Z,98942.86
2023-05-11T05:26:17.296Z,98944.11
2023-05-11T05:27:39.393Z,98944.27
2023-05-11T05:29:04.773Z,98940.20
2023-05-11T05:30:27.196Z,98938.90
2023-05-11T05:31:49.532Z,98942.11
2023-05-11T05:33:18.653Z,98940.60
2023-05-11T05:34:50.114Z,98938.31
2023-05-11T05:36:19.732Z,98942.98
2023-05-11T05:37:42.920Z,98941.04
2023-05-11T05:39:08.844Z,98945.58
2023-05-11T05:40:40.588Z,98946.87
2023-05-11T05:42:03.301Z,98947.08
2023-05-11T05:43:24.915Z,98949.52
2023-05-11T05:44:46.780Z,98947.44
2023-05-11T05:46:09.057Z,98949.48
2023-05-11T05:47:30.888Z,98950.23
2023-05-11T05:48:55.319Z,98948.08
2023-05-11T05:50:24.642Z,98947.15
2023-05-11T05:51:47.217Z,98945.89
2023-05-11T05:53:11.466Z,98947.05
2023-05-11T05:54:33.862Z,98949.83
2023-05-11T05:55:56.017Z,98947.20
2023-05-11T05:57:17.429Z,98948.95
2023-05-11T05:58:40.001Z,98953.40
2023-05-11T06:00:02.224Z,98949.78
2023-05-11T06:01:23.942Z,98947.89
2023-05-11T06:02:48.345Z,98953.06
2023-05-11T06:04:18.999Z,98951.27
2023-05-11T06:05:40.711Z,98949.91
2023-05-11T06:07:02.473Z,98948.91
2023-05-11T06:08:24.291Z,98947.92
2023-05-11T06:09:57.924Z,98946.27
2023-05-11T06:11:19.507Z,98947.41
2023-05-11T06:12:40.942Z,98950.16
2023-05-11T06:14:14.754Z,98944.91
2023-05-11T06:15:41.038Z,98944.93
2023-05-11T06:17:09.503Z,98948.78
2023-05-11T06:18:45.469Z,98946.92
2023-05-11T06:20:21.531Z,98945.47
2023-05-11T06:21:45.402Z,98944.40
2023-05-11T06:23:08.005Z,98946.42
2023-05-11T06:24:32.115Z,98945.26
2023-05-11T06:26:06.322Z,98943.12
2023-05-11T06:27:28.088Z,98944.71
2023-05-11T06:28:52.513Z,98943.55
2023-05-11T06:30:17.349Z,98946.34
2023-05-11T06:31:42.538Z,98942.56
2023-05-11T06:33:06.900Z,98948.67
2023-05-11T06:34:28.830Z,98949.26
2023-05-11T06:35:51.255Z,98945.29
2023-05-11T06:37:20.157Z,98948.89
2023-05-11T06:38:43.614Z,98944.06
2023-05-11T06:40:05.452Z,98951.88
2023-05-11T06:41:38.971Z,98947.48
2023-05-11T06:43:03.282Z,98949.35
2023-05-11T06:44:39.614Z,98948.89
2023-05-11T06:46:01.933Z,98950.88
2023-05-11T06:47:26.399Z,98951.33
2023-05-11T06:48:56.709Z,98955.51
2023-05-11T06:50:21.612Z,98950.09
2023-05-11T06:51:45.885Z,98952.35
2023-05-11T06:53:08.353Z,98955.36
2023-05-11T06:54:32.362Z,98954.29
2023-05-11T06:55:54.697Z,98951.16
2023-05-11T06:57:25.704Z,98941.56
2023-05-11T06:58:47.621Z,98948.61
2023-05-11T07:00:11.769Z,98953.87
2023-05-11T07:01:33.464Z,98950.39
2023-05-11T07:02:55.573Z,98956.23
2023-05-11T07:04:25.030Z,98953.09
2023-05-11T07:05:47.304Z,98948.88
2023-05-11T07:07:11.268Z,98952.20
2023-05-11T07:08:33.795Z,98950.39
2023-05-11T07:09:58.544Z,98949.33
2023-05-11T07:11:20.050Z,98948.23
2023-05-11T07:12:44.537Z,98946.12
2023-05-11T07:14:08.416Z,98957.05
2023-05-11T07:15:44.334Z,98949.83
2023-05-11T07:17:10.947Z,98946.49
2023-05-11T07:18:40.038Z,98942.55
2023-05-11T07:20:01.856Z,98943.45
2023-05-11T07:21:25.440Z,98945.14
2023-05-11T07:22:49.395Z,98946.83
2023-05-11T07:24:13.598Z,98943.73
2023-05-11T07:25:35.178Z,98945.00
2023-05-11T07:26:57.510Z,98947.58
2023-05-11T07:28:19.083Z,98945.80
2023-05-11T07:29:42.850Z,98944.90
2023-05-11T07:31:05.192Z,98949.44
2023-05-11T07:32:34.907Z,98948.52
2023-05-11T07:34:08.189Z,98946.64
2023-05-11T07:35:29.960Z,98949.21
2023-05-11T07:36:51.768Z,98948.40
2023-05-11T07:38:18.295Z,98948.84
2023-05-11T07:39:42.113Z,98950.86
2023-05-11T07:41:05.897Z,98943.80
2023-05-11T07:42:42.226Z,98945.02
2023-05-11T07:44:06.093Z,98943.17
2023-05-11T07:45:27.572Z,98946.71
2023-05-11T07:46:49.501Z,98946.72
2023-05-11T07:48:25.924Z,98942.04
2023-05-11T07:49:50.427Z,98943.99
2023-05-11T07:51:14.678Z,98942.70
2023-05-11T07:52:36.467Z,98942.98
2023-05-11T07:53:58.179Z,98945.63
2023-05-11T07:55:25.025Z,98942.68
2023-05-11T07:56:46.914Z,98942.58
2023-05-11T07:58:11.060Z,98944.89
2023-05-11T07:59:35.134Z,98937.73
2023-05-11T08:00:59.479Z,98938.55
2023-05-11T08:02:21.328Z,98937.17
2023-05-11T08:03:43.352Z,98941.98
2023-05-11T08:05:10.070Z,98945.14
2023-05-11T08:06:33.629Z,98943.98
2023-05-11T08:07:56.148Z,98944.61
2023-05-11T08:09:24.870Z,98938.38
2023-05-11T08:10:47.048Z,98935.05
2023-05-11T08:12:08.759Z,98937.33
2023-05-11T08:13:30.074Z,98935.52
2023-05-11T08:14:52.237Z,98934.87
2023-05-11T08:16:14.902Z,98934.14
2023-05-11T08:17:46.336Z,98934.98
2023-05-11T08:19:08.183Z,98930.04
2023-05-11T08:20:30.512Z,98933.98
2023-05-11T08:21:52.426Z,98931.67
2023-05-11T08:23:18.010Z,98931.27
2023-05-11T08:24:40.118Z,98931.76
2023-05-11T08:26:02.058Z,98931.09
2023-05-11T08:27:26.359Z,98935.29
2023-05-11T08:28:52.095Z,98931.95
2023-05-11T08:30:21.409Z,98933.74
2023-05-11T08:31:48.695Z,98930.59
2023-05-11T08:33:33.735Z,98931.94
2023-05-11T08:34:55.394Z,98936.20
2023-05-11T08:36:19.515Z,98936.91
2023-05-11T08:37:41.279Z,98941.24
2023-05-11T08:39:05.646Z,98935.88
2023-05-11T08:42:13.907Z,98937.69
2023-05-11T08:43:36.061Z,98934.20
2023-05-11T08:45:05.448Z,98933.67
2023-05-11T08:46:27.596Z,98932.75
2023-05-11T08:47:51.767Z,98933.77
2023-05-11T08:49:14.133Z,98927.08
2023-05-11T08:50:35.822Z,98927.01
2023-05-11T08:52:00.288Z,98930.87
2023-05-11T08:53:29.378Z,98928.75
2023-05-11T08:54:51.406Z,98939.63
2023-05-11T08:56:13.391Z,98927.35
2023-05-11T08:57:35.150Z,98922.42
2023-05-11T08:58:59.543Z,98930.23
2023-05-11T09:00:23.085Z,98928.48
2023-05-11T09:01:44.649Z,98932.13
2023-05-11T09:03:06.746Z,98932.31
2023-05-11T09:04:28.467Z,98932.92
2023-05-11T09:05:55.440Z,98933.92
2023-05-11T09:07:19.714Z,98928.34
2023-05-11T09:08:41.535Z,98930.13
2023-05-11T09:10:03.609Z,98927.80
2023-05-11T09:11:27.045Z,98929.39
2023-05-11T09:12:51.639Z,98931.40
2023-05-11T09:14:13.337Z,98931.55
2023-05-11T09:15:38.392Z,98936.64
2023-05-11T09:17:00.246Z,98932.37
2023-05-11T09:18:24.260Z,98929.34
2023-05-11T09:19:48.207Z,98935.80
2023-05-11T09:21:10.100Z,98930.71
2023-05-11T09:22:33.851Z,98935.30
2023-05-11T09:24:01.818Z,98932.13
2023-05-11T09:25:23.564Z,98928.93
2023-05-11T09:26:52.722Z,98927.06
2023-05-11T09:28:26.932Z,98929.15
2023-05-11T09:29:51.981Z,98928.70
2023-05-11T09:31:14.814Z,98929.53
2023-05-11T09:32:38.784Z,98926.63
2023-05-11T09:34:01.042Z,98932.08
2023-05-11T09:35:31.801Z,98929.77
2023-05-11T09:36:53.652Z,98921.96
2023-05-11T09:38:25.668Z,98930.30
2023-05-11T09:40:28.248Z,98923.29
2023-05-11T09:41:34.908Z,98925.82
2023-05-11T09:42:57.245Z,98918.49
2023-05-11T09:44:18.655Z,98918.89
2023-05-11T09:45:40.485Z,98918.80
2023-05-11T09:47:03.184Z,98915.21
2023-05-11T09:48:25.260Z,98912.19
2023-05-11T09:49:46.993Z,98910.04
2023-05-11T09:51:09.199Z,98911.64
2023-05-11T09:52:30.982Z,98911.09
2023-05-11T09:53:54.161Z,98910.56
2023-05-11T09:55:27.414Z,98918.08
2023-05-11T09:56:49.622Z,98911.62
2023-05-11T09:58:11.475Z,98912.52
2023-05-11T09:59:35.457Z,98908.63
2023-05-11T10:00:57.713Z,98915.20
2023-05-11T10:02:19.238Z,98909.67
2023-05-11T10:03:40.938Z,98909.55
2023-05-11T10:05:03.340Z,98906.91
2023-05-11T10:06:26.913Z,98904.94
2023-05-11T10:07:48.904Z,98907.99
2023-05-11T10:09:10.657Z,98906.52
2023-05-11T10:10:32.573Z,98900.23
2023-05-11T10:11:54.613Z,98906.23
2023-05-11T10:13:21.176Z,98905.44
2023-05-11T10:14:45.336Z,98901.98
2023-05-11T10:16:07.470Z,98901.38
2023-05-11T10:17:37.121Z,98892.08
2023-05-11T10:19:01.948Z,98898.31
2023-05-11T10:20:26.029Z,98899.56
2023-05-11T10:21:59.474Z,98894.20
2023-05-11T10:23:21.458Z,98895.77
2023-05-11T10:24:43.255Z,98892.98
2023-05-11T10:26:24.456Z,98890.64
2023-05-11T10:27:46.260Z,98894.19
2023-05-11T10:29:10.530Z,98891.05
2023-05-11T10:30:34.789Z,98889.83
2023-05-11T10:31:56.680Z,98888.75
2023-05-11T10:33:18.212Z,98880.55
2023-05-11T10:34:40.153Z,98890.70
2023-05-11T10:36:02.243Z,98888.58
2023-05-11T10:37:28.508Z,98894.09
2023-05-11T10:38:50.331Z,98890.30
2023-05-11T10:40:12.158Z,98893.23
2023-05-11T10:41:33.745Z,98888.05
2023-05-11T10:42:58.004Z,98884.92
2023-05-11T10:44:20.205Z,98886.84
2023-05-11T10:45:41.745Z,98882.88
2023-05-11T10:47:03.914Z,98883.08
2023-05-11T10:48:44.945Z,98881.65
2023-05-11T10:50:16.841Z,98886.86
2023-05-11T10:51:38.552Z,98882.67
2023-05-11T10:53:00.653Z,98875.88
2023-05-11T10:54:24.517Z,98874.55
2023-05-11T10:55:53.405Z,98867.91
2023-05-11T10:57:15.397Z,98873.39
2023-05-11T10:58:37.445Z,98876.85
2023-05-11T11:00:04.777Z,98880.30
2023-05-11T11:01:29.090Z,98881.65
2023-05-11T11:02:53.968Z,98874.32
2023-05-11T11:04:16.069Z,98871.59
2023-05-11T11:05:43.586Z,98871.10
2023-05-11T11:07:05.691Z,98873.05
2023-05-11T11:08:30.113Z,98864.52
2023-05-11T11:10:06.259Z,98853.67
2023-05-11T11:11:35.156Z,98857.68
2023-05-11T11:13:08.613Z,98866.39
2023-05-11T11:14:30.248Z,98870.41
2023-05-11T11:16:04.263Z,98869.20
2023-05-11T11:17:38.920Z,98864.26
2023-05-11T11:19:05.617Z,98869.82
2023-05-11T11:20:50.860Z,98864.38
2023-05-11T11:22:23.992Z,98863.55
2023-05-11T11:23:45.942Z,98866.41
2023-05-11T11:25:08.598Z,98870.15
2023-05-11T11:26:39.954Z,98869.39
2023-05-11T11:28:08.989Z,98868.95
2023-05-11T11:29:30.593Z,98868.23
2023-05-11T11:30:55.250Z,98869.47
2023-05-11T11:32:16.939Z,98868.41
2023-05-11T11:33:38.583Z,98863.64
2023-05-11T11:35:00.284Z,98861.51
2023-05-11T11:36:21.805Z,98866.27
2023-05-11T11:37:45.828Z,98869.90
2023-05-11T11:39:08.376Z,98876.61
2023-05-11T11:40:49.559Z,98867.50
2023-05-11T11:42:13.071Z,98868.55
2023-05-11T11:43:58.393Z,98862.88
2023-05-11T11:45:32.214Z,98841.67
2023-05-11T11:47:05.979Z,98861.39
2023-05-11T11:48:38.385Z,98863.77
2023-05-11T11:50:07.673Z,98858.98
2023-05-11T11:51:32.273Z,98862.06
2023-05-11T11:52:56.744Z,98863.24
2023-05-11T11:54:25.611Z,98865.53
2023-05-11T11:55:49.887Z,98858.63
2023-05-11T11:57:27.841Z,98864.88
2023-05-11T11:58:49.919Z,98865.77
2023-05-11T12:00:43.370Z,98853.01
2023-05-11T12:02:16.670Z,98855.13
2023-05-11T12:03:58.045Z,98855.90
2023-05-11T12:05:31.420Z,98856.29
2023-05-11T12:07:07.768Z,98861.51
2023-05-11T12:08:49.040Z,98860.61
2023-05-11T12:10:22.474Z,98863.38
2023-05-11T12:11:44.427Z,98860.43
2023-05-11T12:13:06.513Z,98860.38
2023-05-11T12:14:39.497Z,98857.93
2023-05-11T12:16:01.858Z,98854.76
2023-05-11T12:17:23.724Z,98860.93
2023-05-11T12:18:45.297Z,98860.46
2023-05-11T12:20:09.766Z,98854.65
2023-05-11T12:21:39.521Z,98855.80
2023-05-11T12:23:15.839Z,98854.52
2023-05-11T12:24:38.757Z,98855.86
2023-05-11T12:26:00.493Z,98857.17
2023-05-11T12:27:22.317Z,98857.11
2023-05-11T12:28:51.873Z,98854.28
2023-05-11T12:30:16.209Z,98850.95
2023-05-11T12:31:37.799Z,98858.09
2023-05-11T12:33:00.248Z,98851.45
2023-05-11T12:34:24.816Z,98850.61
2023-05-11T12:35:54.243Z,98850.23
2023-05-11T12:37:16.047Z,98851.80
2023-05-11T12:38:40.101Z,98858.80
2023-05-11T12:40:04.517Z,98855.60
2023-05-11T12:41:28.656Z,98847.83
2023-05-11T12:42:51.280Z,98850.70
2023-05-11T12:44:13.364Z,98852.83
2023-05-11T12:45:37.731Z,98851.17
2023-05-11T12:46:59.760Z,98849.24
2023-05-11T12:48:29.091Z,98849.59
2023-05-11T12:49:53.387Z,98847.92
2023-05-11T12:51:15.128Z,98845.58
2023-05-11T12:52:37.061Z,98841.33
2023-05-11T12:54:08.904Z,98845.05
2023-05-11T12:55:30.794Z,98845.16
2023-05-11T12:56:52.317Z,98845.78
2023-05-11T12:58:21.510Z,98847.77
2023-05-11T12:59:43.201Z,98842.15
2023-05-11T13:01:12.581Z,98841.40
2023-05-11T13:02:41.791Z,98844.29
2023-05-11T13:04:06.199Z,98838.73
2023-05-11T13:05:30.007Z,98826.02
2023-05-11T13:06:54.129Z,98840.11
2023-05-11T13:08:18.131Z,98841.20
2023-05-11T13:09:39.864Z,98842.73
2023-05-11T13:11:01.494Z,98837.71
2023-05-11T13:12:24.133Z,98835.29
2023-05-11T13:13:57.961Z,98829.66
2023-05-11T13:15:19.860Z,98837.41
2023-05-11T13:16:42.089Z,98833.13
2023-05-11T13:18:06.562Z,98831.12
2023-05-11T13:19:28.725Z,98826.06
2023-05-11T13:21:02.355Z,98827.63
2023-05-11T13:22:24.048Z,98824.34
2023-05-11T13:23:59.583Z,98821.90
2023-05-11T13:25:21.680Z,98822.04
2023-05-11T13:26:43.694Z,98823.70
2023-05-11T13:28:13.114Z,98823.55
2023-05-11T13:29:34.511Z,98815.86
2023-05-11T13:31:20.027Z,98817.98
2023-05-11T13:32:43.862Z,98822.67
2023-05-11T13:34:13.058Z,98818.98
2023-05-11T13:35:37.252Z,98817.34
2023-05-11T13:37:06.821Z,98816.48
2023-05-11T13:38:28.302Z,98815.35
2023-05-11T13:39:52.144Z,98814.34
2023-05-11T13:41:25.558Z,98812.42
2023-05-11T13:43:01.026Z,98814.01
2023-05-11T13:44:24.750Z,98820.67
2023-05-11T13:45:59.008Z,98816.44
2023-05-11T13:47:34.832Z,98812.89
2023-05-11T13:49:00.473Z,98813.85
2023-05-11T13:50:45.479Z,98812.18
2023-05-11T13:52:19.327Z,98815.40
2023-05-11T13:54:13.155Z,98811.48
2023-05-11T13:55:46.188Z,98811.95
2023-05-11T13:57:22.176Z,98812.86
2023-05-11T13:58:57.253Z,98812.95
2023-05-11T14:00:40.245Z,98815.39
2023-05-11T14:02:05.603Z,98810.35
2023-05-11T14:03:35.175Z,98814.41
2023-05-11T14:05:11.164Z,98808.89
2023-05-11T14:06:44.786Z,98807.84
2023-05-11T14:08:17.797Z,98810.09
2023-05-11T14:09:51.186Z,98808.15
2023-05-11T14:11:26.966Z,98805.81
2023-05-11T14:13:00.636Z,98807.18
2023-05-11T14:14:36.164Z,98810.86
2023-05-11T14:16:12.161Z,98803.95
2023-05-11T14:17:49.604Z,98806.34
2023-05-11T14:19:22.460Z,98807.97
2023-05-11T14:20:54.922Z,98803.39
2023-05-11T14:22:40.262Z,98809.34
2023-05-11T14:24:14.276Z,98810.86
2023-05-11T14:25:36.187Z,98808.48
2023-05-11T14:27:00.400Z,98802.98
2023-05-11T14:28:40.799Z,98804.21
2023-05-11T14:30:10.314Z,98803.52
2023-05-11T14:31:34.441Z,98803.90
2023-05-11T14:33:04.348Z,98792.70
2023-05-11T14:34:26.265Z,98796.93
2023-05-11T14:35:47.938Z,98797.54
2023-05-11T14:37:28.598Z,98801.54
2023-05-11T14:38:50.642Z,98799.83
2023-05-11T14:40:12.594Z,98799.49
2023-05-11T14:41:34.017Z,98797.38
2023-05-11T14:42:58.399Z,98796.00
2023-05-11T14:44:29.620Z,98797.36
2023-05-11T14:46:03.577Z,98798.38
2023-05-11T14:47:36.733Z,98800.13
2023-05-11T14:48:58.968Z,98795.97
2023-05-11T14:50:31.913Z,98803.66
2023-05-11T14:51:58.260Z,98799.36
2023-05-11T14:53:19.748Z,98802.69
2023-05-11T14:54:49.419Z,98801.92
2023-05-11T14:56:11.419Z,98803.39
2023-05-11T14:57:45.008Z,98804.15
2023-05-11T14:59:07.030Z,98802.88
2023-05-11T15:00:31.085Z,98805.76
2023-05-11T15:02:00.671Z,98801.55
2023-05-11T15:03:24.873Z,98800.64
2023-05-11T15:04:48.700Z,98801.95
2023-05-11T15:06:22.226Z,98801.50
2023-05-11T15:07:44.163Z,98798.51
2023-05-11T15:09:13.542Z,98800.30
2023-05-11T15:10:39.583Z,98802.88
2023-05-11T15:12:04.559Z,98802.12
2023-05-11T15:13:26.018Z,98801.46
2023-05-11T15:14:54.984Z,98799.73
2023-05-11T15:16:16.901Z,98798.02
2023-05-11T15:17:47.660Z,98799.79
2023-05-11T15:19:20.831Z,98802.73
2023-05-11T15:21:03.429Z,98803.87
2023-05-11T15:22:29.584Z,98800.17
2023-05-11T15:23:52.225Z,98799.95
2023-05-11T15:25:14.208Z,98803.28
2023-05-11T15:26:36.219Z,98804.02
2023-05-11T15:27:58.893Z,98797.23
2023-05-11T15:29:22.132Z,98804.10
2023-05-11T15:30:51.544Z,98797.81
2023-05-11T15:32:14.154Z,98798.10
2023-05-11T15:33:37.923Z,98797.64
2023-05-11T15:35:11.712Z,98799.38
2023-05-11T15:36:35.712Z,98799.20
2023-05-11T15:38:09.361Z,98801.90
2023-05-11T15:39:31.154Z,98805.00
2023-05-11T15:41:13.932Z,98807.86
2023-05-11T15:42:35.452Z,98804.56
2023-05-11T15:44:12.483Z,98805.47
2023-05-11T15:45:41.771Z,98805.83
2023-05-11T15:47:06.018Z,98806.83
2023-05-11T15:48:39.709Z,98800.02
2023-05-11T15:50:04.051Z,98805.20
2023-05-11T15:51:37.115Z,98805.20
2023-05-11T15:53:01.609Z,98807.34
2023-05-11T15:54:36.915Z,98803.66
2023-05-11T15:56:06.207Z,98803.78
2023-05-11T15:57:30.197Z,98807.39
2023-05-11T15:58:52.024Z,98813.28
2023-05-11T16:00:14.016Z,98806.65
2023-05-11T16:01:43.638Z,98810.84
2023-05-11T16:03:13.766Z,98811.27
2023-05-11T16:04:37.521Z,98808.59
2023-05-11T16:05:59.394Z,98812.95
2023-05-11T16:07:20.711Z,98808.38
2023-05-11T16:08:44.918Z,98806.84
2023-05-11T16:10:07.062Z,98807.39
2023-05-11T16:11:28.752Z,98804.98
2023-05-11T16:12:50.669Z,98810.40
2023-05-11T16:14:12.554Z,98809.38
2023-05-11T16:15:34.076Z,98800.23
2023-05-11T16:17:01.152Z,98802.01
2023-05-11T16:18:53.415Z,98804.21
2023-05-11T16:20:15.613Z,98809.92
2023-05-11T16:21:37.620Z,98812.82
2023-05-11T16:23:02.108Z,98808.60
2023-05-11T16:24:25.541Z,98809.16
2023-05-11T16:25:47.736Z,98808.81
2023-05-11T16:27:12.711Z,98807.42
2023-05-11T16:28:34.007Z,98804.77
2023-05-11T16:29:55.934Z,98806.88
2023-05-11T16:31:17.650Z,98809.10
2023-05-11T16:32:43.554Z,98807.05
2023-05-11T16:34:05.488Z,98806.27
2023-05-11T16:35:29.321Z,98800.80
2023-05-11T16:36:53.763Z,98789.27
2023-05-11T16:38:16.134Z,98807.52
2023-05-11T16:39:40.411Z,98807.87
2023-05-11T16:41:02.287Z,98807.55
2023-05-11T16:42:26.142Z,98810.33
2023-05-11T16:43:50.104Z,98808.77
2023-05-11T16:45:16.300Z,98810.67
2023-05-11T16:46:40.367Z,98811.05